sensor_id;sensor_type;location;lat;lon;timestamp;P1;durP1;ratioP1;P2;durP2;ratioP2
3447;SDS011;1738;49.500;17.736;2023-05-10T00:00:59;6.27;;;3.77;;
3447;SDS011;1738;49.500;17.736;2023-05-10T00:03:24;5.80;;;3.97;;
3447;SDS011;1738;49.500;17.736;2023-05-10T00:05:50;5.32;;;3.58;;
3447;SDS011;1738;49.500;17.736;2023-05-10T00:08:16;5.60;;;3.83;;
3447;SDS011;1738;49.500;17.736;2023-05-10T00:10:42;5.80;;;4.10;;
3447;SDS011;1738;49.500;17.736;2023-05-10T00:13:08;5.20;;;3.77;;
3447;SDS011;1738;49.500;17.736;2023-05-10T00:15:33;5.57;;;3.10;;
3447;SDS011;1738;49.500;17.736;2023-05-10T00:17:59;8.67;;;4.43;;
3447;SDS011;1738;49.500;17.736;2023-05-10T00:20:25;5.77;;;3.70;;
3447;SDS011;1738;49.500;17.736;2023-05-10T00:22:51;4.60;;;3.50;;
3447;SDS011;1738;49.500;17.736;2023-05-10T00:25:17;6.37;;;3.23;;
3447;SDS011;1738;49.500;17.736;2023-05-10T00:27:43;6.10;;;4.07;;
3447;SDS011;1738;49.500;17.736;2023-05-10T00:30:09;5.57;;;4.23;;
3447;SDS011;1738;49.500;17.736;2023-05-10T00:32:34;4.80;;;3.53;;
3447;SDS011;1738;49.500;17.736;2023-05-10T00:35:00;5.87;;;3.93;;
3447;SDS011;1738;49.500;17.736;2023-05-10T00:37:26;5.80;;;3.42;;
3447;SDS011;1738;49.500;17.736;2023-05-10T00:39:52;5.13;;;3.30;;
3447;SDS011;1738;49.500;17.736;2023-05-10T00:42:18;9.43;;;4.00;;
3447;SDS011;1738;49.500;17.736;2023-05-10T00:44:44;6.90;;;3.50;;
3447;SDS011;1738;49.500;17.736;2023-05-10T00:47:10;5.40;;;3.77;;
3447;SDS011;1738;49.500;17.736;2023-05-10T00:49:35;4.93;;;3.20;;
3447;SDS011;1738;49.500;17.736;2023-05-10T00:52:01;5.80;;;3.87;;
3447;SDS011;1738;49.500;17.736;2023-05-10T00:54:27;8.50;;;4.37;;
3447;SDS011;1738;49.500;17.736;2023-05-10T00:56:53;5.77;;;3.33;;
3447;SDS011;1738;49.500;17.736;2023-05-10T00:59:19;4.83;;;3.17;;
3447;SDS011;1738;49.500;17.736;2023-05-10T01:01:45;6.80;;;3.90;;
3447;SDS011;1738;49.500;17.736;2023-05-10T01:04:11;4.47;;;3.40;;
3447;SDS011;1738;49.500;17.736;2023-05-10T01:06:37;5.53;;;3.50;;
3447;SDS011;1738;49.500;17.736;2023-05-10T01:09:03;6.47;;;4.17;;
3447;SDS011;1738;49.500;17.736;2023-05-10T01:11:29;7.17;;;3.50;;
3447;SDS011;1738;49.500;17.736;2023-05-10T01:13:55;6.00;;;3.53;;
3447;SDS011;1738;49.500;17.736;2023-05-10T01:16:20;5.30;;;3.00;;
3447;SDS011;1738;49.500;17.736;2023-05-10T01:18:46;5.00;;;3.30;;
3447;SDS011;1738;49.500;17.736;2023-05-10T01:21:19;5.40;;;3.40;;
3447;SDS011;1738;49.500;17.736;2023-05-10T01:23:45;5.93;;;3.60;;
3447;SDS011;1738;49.500;17.736;2023-05-10T01:26:14;5.50;;;3.70;;
3447;SDS011;1738;49.500;17.736;2023-05-10T01:31:18;5.23;;;3.90;;
3447;SDS011;1738;49.500;17.736;2023-05-10T01:33:43;4.60;;;3.47;;
3447;SDS011;1738;49.500;17.736;2023-05-10T01:36:14;6.17;;;3.93;;
3447;SDS011;1738;49.500;17.736;2023-05-10T01:38:43;6.55;;;4.20;;
3447;SDS011;1738;49.500;17.736;2023-05-10T01:41:16;5.53;;;3.47;;
3447;SDS011;1738;49.500;17.736;2023-05-10T01:43:48;5.10;;;3.30;;
3447;SDS011;1738;49.500;17.736;2023-05-10T01:46:10;5.10;;;3.77;;
3447;SDS011;1738;49.500;17.736;2023-05-10T01:48:36;5.83;;;4.67;;
3447;SDS011;1738;49.500;17.736;2023-05-10T01:51:01;5.43;;;3.53;;
3447;SDS011;1738;49.500;17.736;2023-05-10T01:53:27;4.70;;;3.47;;
3447;SDS011;1738;49.500;17.736;2023-05-10T01:55:53;5.40;;;3.10;;
3447;SDS011;1738;49.500;17.736;2023-05-10T01:58:24;4.60;;;3.60;;
3447;SDS011;1738;49.500;17.736;2023-05-10T02:00:47;7.33;;;3.37;;
3447;SDS011;1738;49.500;17.736;2023-05-10T02:03:13;5.50;;;3.60;;
3447;SDS011;1738;49.500;17.736;2023-05-10T02:05:39;4.30;;;3.00;;
3447;SDS011;1738;49.500;17.736;2023-05-10T02:08:06;5.40;;;3.60;;
3447;SDS011;1738;49.500;17.736;2023-05-10T02:10:31;4.93;;;3.57;;
3447;SDS011;1738;49.500;17.736;2023-05-10T02:12:58;5.40;;;3.93;;
3447;SDS011;1738;49.500;17.736;2023-05-10T02:15:23;5.60;;;3.60;;
3447;SDS011;1738;49.500;17.736;2023-05-10T02:17:48;4.33;;;3.33;;
3447;SDS011;1738;49.500;17.736;2023-05-10T02:20:14;5.47;;;3.90;;
3447;SDS011;1738;49.500;17.736;2023-05-10T02:22:40;5.00;;;3.80;;
3447;SDS011;1738;49.500;17.736;2023-05-10T02:25:06;7.00;;;4.07;;
3447;SDS011;1738;49.500;17.736;2023-05-10T02:27:32;6.07;;;4.03;;
3447;SDS011;1738;49.500;17.736;2023-05-10T02:29:58;7.23;;;3.80;;
3447;SDS011;1738;49.500;17.736;2023-05-10T02:32:24;6.17;;;4.03;;
3447;SDS011;1738;49.500;17.736;2023-05-10T02:34:49;9.10;;;4.20;;
3447;SDS011;1738;49.500;17.736;2023-05-10T02:37:16;5.40;;;3.73;;
3447;SDS011;1738;49.500;17.736;2023-05-10T02:39:42;7.40;;;4.00;;
3447;SDS011;1738;49.500;17.736;2023-05-10T02:42:08;4.27;;;3.03;;
3447;SDS011;1738;49.500;17.736;2023-05-10T02:44:34;7.93;;;4.53;;
3447;SDS011;1738;49.500;17.736;2023-05-10T02:46:59;7.53;;;3.50;;
3447;SDS011;1738;49.500;17.736;2023-05-10T02:49:25;4.30;;;3.10;;
3447;SDS011;1738;49.500;17.736;2023-05-10T02:51:53;5.80;;;3.90;;
3447;SDS011;1738;49.500;17.736;2023-05-10T02:54:18;4.77;;;3.17;;
3447;SDS011;1738;49.500;17.736;2023-05-10T02:56:47;6.83;;;4.00;;
3447;SDS011;1738;49.500;17.736;2023-05-10T02:59:10;3.97;;;3.30;;
3447;SDS011;1738;49.500;17.736;2023-05-10T03:01:35;4.73;;;3.33;;
3447;SDS011;1738;49.500;17.736;2023-05-10T03:04:01;4.30;;;3.13;;
3447;SDS011;1738;49.500;17.736;2023-05-10T03:06:27;5.60;;;3.97;;
3447;SDS011;1738;49.500;17.736;2023-05-10T03:08:53;5.53;;;4.33;;
3447;SDS011;1738;49.500;17.736;2023-05-10T03:11:28;7.73;;;4.03;;
3447;SDS011;1738;49.500;17.736;2023-05-10T03:13:56;6.80;;;3.97;;
3447;SDS011;1738;49.500;17.736;2023-05-10T03:16:23;6.20;;;4.30;;
3447;SDS011;1738;49.500;17.736;2023-05-10T03:18:50;4.80;;;3.60;;
3447;SDS011;1738;49.500;17.736;2023-05-10T03:21:14;5.57;;;3.83;;
3447;SDS011;1738;49.500;17.736;2023-05-10T03:23:41;5.50;;;3.50;;
3447;SDS011;1738;49.500;17.736;2023-05-10T03:26:07;4.57;;;3.33;;
3447;SDS011;1738;49.500;17.736;2023-05-10T03:28:32;7.03;;;4.60;;
3447;SDS011;1738;49.500;17.736;2023-05-10T03:30:58;4.63;;;3.63;;
3447;SDS011;1738;49.500;17.736;2023-05-10T03:33:24;6.17;;;4.70;;
3447;SDS011;1738;49.500;17.736;2023-05-10T03:35:49;8.40;;;5.20;;
3447;SDS011;1738;49.500;17.736;2023-05-10T03:38:15;7.37;;;5.27;;
3447;SDS011;1738;49.500;17.736;2023-05-10T03:40:41;6.80;;;4.97;;
3447;SDS011;1738;49.500;17.736;2023-05-10T03:43:07;7.90;;;6.10;;
3447;SDS011;1738;49.500;17.736;2023-05-10T03:45:33;7.00;;;4.97;;
3447;SDS011;1738;49.500;17.736;2023-05-10T03:47:59;5.40;;;4.10;;
3447;SDS011;1738;49.500;17.736;2023-05-10T03:50:24;8.63;;;3.93;;
3447;SDS011;1738;49.500;17.736;2023-05-10T03:52:50;7.40;;;5.20;;
3447;SDS011;1738;49.500;17.736;2023-05-10T03:55:16;6.67;;;4.40;;
3447;SDS011;1738;49.500;17.736;2023-05-10T03:57:42;7.70;;;5.07;;
3447;SDS011;1738;49.500;17.736;2023-05-10T04:00:09;6.90;;;5.17;;
3447;SDS011;1738;49.500;17.736;2023-05-10T04:02:35;10.60;;;4.57;;
3447;SDS011;1738;49.500;17.736;2023-05-10T04:05:01;9.77;;;4.97;;
3447;SDS011;1738;49.500;17.736;2023-05-10T04:07:26;6.12;;;4.45;;
3447;SDS011;1738;49.500;17.736;2023-05-10T04:09:52;6.30;;;4.20;;
3447;SDS011;1738;49.500;17.736;2023-05-10T04:12:18;5.60;;;4.27;;
3447;SDS011;1738;49.500;17.736;2023-05-10T04:14:44;6.10;;;4.27;;
3447;SDS011;1738;49.500;17.736;2023-05-10T04:17:10;7.60;;;4.43;;
3447;SDS011;1738;49.500;17.736;2023-05-10T04:19:36;5.20;;;4.10;;
3447;SDS011;1738;49.500;17.736;2023-05-10T04:22:02;5.27;;;3.80;;
3447;SDS011;1738;49.500;17.736;2023-05-10T04:24:27;6.77;;;4.03;;
3447;SDS011;1738;49.500;17.736;2023-05-10T04:26:53;5.03;;;4.10;;
3447;SDS011;1738;49.500;17.736;2023-05-10T04:29:19;7.70;;;3.83;;
3447;SDS011;1738;49.500;17.736;2023-05-10T04:31:45;6.40;;;3.70;;
3447;SDS011;1738;49.500;17.736;2023-05-10T04:34:11;5.68;;;4.10;;
3447;SDS011;1738;49.500;17.736;2023-05-10T04:36:37;6.47;;;3.80;;
3447;SDS011;1738;49.500;17.736;2023-05-10T04:39:03;6.17;;;4.00;;
3447;SDS011;1738;49.500;17.736;2023-05-10T04:41:28;4.73;;;3.80;;
3447;SDS011;1738;49.500;17.736;2023-05-10T04:43:54;6.47;;;4.27;;
3447;SDS011;1738;49.500;17.736;2023-05-10T04:46:20;6.83;;;4.17;;
3447;SDS011;1738;49.500;17.736;2023-05-10T04:48:46;6.10;;;3.47;;
3447;SDS011;1738;49.500;17.736;2023-05-10T04:51:12;4.17;;;3.00;;
3447;SDS011;1738;49.500;17.736;2023-05-10T04:53:38;10.03;;;4.33;;
3447;SDS011;1738;49.500;17.736;2023-05-10T04:56:03;5.40;;;3.20;;
3447;SDS011;1738;49.500;17.736;2023-05-10T04:58:29;6.50;;;3.73;;
3447;SDS011;1738;49.500;17.736;2023-05-10T05:00:55;7.30;;;4.83;;
3447;SDS011;1738;49.500;17.736;2023-05-10T05:03:21;5.10;;;3.57;;
3447;SDS011;1738;49.500;17.736;2023-05-10T05:05:47;6.17;;;3.50;;
3447;SDS011;1738;49.500;17.736;2023-05-10T05:08:13;6.90;;;3.83;;
3447;SDS011;1738;49.500;17.736;2023-05-10T05:10:39;5.53;;;3.60;;
3447;SDS011;1738;49.500;17.736;2023-05-10T05:13:05;8.97;;;3.93;;
3447;SDS011;1738;49.500;17.736;2023-05-10T05:15:31;3.50;;;2.60;;
3447;SDS011;1738;49.500;17.736;2023-05-10T05:17:57;7.37;;;5.37;;
3447;SDS011;1738;49.500;17.736;2023-05-10T05:20:23;6.63;;;3.20;;
3447;SDS011;1738;49.500;17.736;2023-05-10T05:22:48;5.37;;;3.30;;
3447;SDS011;1738;49.500;17.736;2023-05-10T05:25:14;5.00;;;3.40;;
3447;SDS011;1738;49.500;17.736;2023-05-10T05:27:40;4.90;;;3.50;;
3447;SDS011;1738;49.500;17.736;2023-05-10T05:30:06;4.60;;;2.70;;
3447;SDS011;1738;49.500;17.736;2023-05-10T05:32:32;4.22;;;2.87;;
3447;SDS011;1738;49.500;17.736;2023-05-10T05:34:58;4.80;;;3.23;;
3447;SDS011;1738;49.500;17.736;2023-05-10T05:37:24;5.57;;;3.33;;
3447;SDS011;1738;49.500;17.736;2023-05-10T05:39:50;4.50;;;3.30;;
3447;SDS011;1738;49.500;17.736;2023-05-10T05:42:15;12.63;;;4.17;;
3447;SDS011;1738;49.500;17.736;2023-05-10T05:44:41;4.13;;;3.00;;
3447;SDS011;1738;49.500;17.736;2023-05-10T05:47:07;4.20;;;2.57;;
3447;SDS011;1738;49.500;17.736;2023-05-10T05:49:33;4.60;;;3.07;;
3447;SDS011;1738;49.500;17.736;2023-05-10T05:51:59;3.70;;;2.60;;
3447;SDS011;1738;49.500;17.736;2023-05-10T05:54:25;6.57;;;3.10;;
3447;SDS011;1738;49.500;17.736;2023-05-10T05:56:53;4.20;;;3.03;;
3447;SDS011;1738;49.500;17.736;2023-05-10T05:59:17;4.50;;;3.30;;
3447;SDS011;1738;49.500;17.736;2023-05-10T06:01:43;6.23;;;2.80;;
3447;SDS011;1738;49.500;17.736;2023-05-10T06:04:09;5.70;;;3.00;;
3447;SDS011;1738;49.500;17.736;2023-05-10T06:06:35;5.43;;;3.33;;
3447;SDS011;1738;49.500;17.736;2023-05-10T06:09:01;5.05;;;3.20;;
3447;SDS011;1738;49.500;17.736;2023-05-10T06:11:26;6.20;;;3.53;;
3447;SDS011;1738;49.500;17.736;2023-05-10T06:13:53;5.63;;;3.40;;
3447;SDS011;1738;49.500;17.736;2023-05-10T06:16:18;6.17;;;3.40;;
3447;SDS011;1738;49.500;17.736;2023-05-10T06:18:44;5.90;;;3.53;;
3447;SDS011;1738;49.500;17.736;2023-05-10T06:21:10;5.37;;;3.57;;
3447;SDS011;1738;49.500;17.736;2023-05-10T06:23:36;6.63;;;3.50;;
3447;SDS011;1738;49.500;17.736;2023-05-10T06:26:02;4.10;;;3.00;;
3447;SDS011;1738;49.500;17.736;2023-05-10T06:28:28;6.23;;;3.70;;
3447;SDS011;1738;49.500;17.736;2023-05-10T06:30:53;8.40;;;4.30;;
3447;SDS011;1738;49.500;17.736;2023-05-10T06:33:19;5.77;;;3.80;;
3447;SDS011;1738;49.500;17.736;2023-05-10T06:35:45;7.13;;;3.90;;
3447;SDS011;1738;49.500;17.736;2023-05-10T06:38:11;7.23;;;4.07;;
3447;SDS011;1738;49.500;17.736;2023-05-10T06:40:40;6.63;;;3.40;;
3447;SDS011;1738;49.500;17.736;2023-05-10T06:43:03;6.83;;;3.90;;
3447;SDS011;1738;49.500;17.736;2023-05-10T06:45:29;6.27;;;3.80;;
3447;SDS011;1738;49.500;17.736;2023-05-10T06:47:54;5.77;;;4.47;;
3447;SDS011;1738;49.500;17.736;2023-05-10T06:50:20;6.80;;;3.83;;
3447;SDS011;1738;49.500;17.736;2023-05-10T06:52:46;5.70;;;3.63;;
3447;SDS011;1738;49.500;17.736;2023-05-10T06:55:12;7.20;;;4.10;;
3447;SDS011;1738;49.500;17.736;2023-05-10T06:57:38;5.40;;;3.60;;
3447;SDS011;1738;49.500;17.736;2023-05-10T07:00:04;5.47;;;3.37;;
3447;SDS011;1738;49.500;17.736;2023-05-10T07:02:30;5.70;;;3.57;;
3447;SDS011;1738;49.500;17.736;2023-05-10T07:04:56;5.73;;;3.90;;
3447;SDS011;1738;49.500;17.736;2023-05-10T07:07:22;6.62;;;3.70;;
3447;SDS011;1738;49.500;17.736;2023-05-10T07:09:48;6.43;;;3.27;;
3447;SDS011;1738;49.500;17.736;2023-05-10T07:12:14;9.10;;;3.63;;
3447;SDS011;1738;49.500;17.736;2023-05-10T07:14:39;5.10;;;3.20;;
3447;SDS011;1738;49.500;17.736;2023-05-10T07:17:05;4.13;;;3.27;;
3447;SDS011;1738;49.500;17.736;2023-05-10T07:19:31;7.27;;;3.30;;
3447;SDS011;1738;49.500;17.736;2023-05-10T07:21:57;3.55;;;2.37;;
3447;SDS011;1738;49.500;17.736;2023-05-10T07:24:23;5.03;;;3.03;;
3447;SDS011;1738;49.500;17.736;2023-05-10T07:26:49;5.00;;;3.43;;
3447;SDS011;1738;49.500;17.736;2023-05-10T07:29:15;3.83;;;2.80;;
3447;SDS011;1738;49.500;17.736;2023-05-10T07:31:40;5.20;;;3.10;;
3447;SDS011;1738;49.500;17.736;2023-05-10T07:34:06;8.23;;;3.43;;
3447;SDS011;1738;49.500;17.736;2023-05-10T07:36:32;4.70;;;3.57;;
3447;SDS011;1738;49.500;17.736;2023-05-10T07:38:58;5.17;;;3.03;;
3447;SDS011;1738;49.500;17.736;2023-05-10T07:41:24;3.67;;;2.60;;
3447;SDS011;1738;49.500;17.736;2023-05-10T07:43:49;6.15;;;3.67;;
3447;SDS011;1738;49.500;17.736;2023-05-10T07:46:15;4.07;;;3.33;;
3447;SDS011;1738;49.500;17.736;2023-05-10T07:48:41;4.60;;;2.73;;
3447;SDS011;1738;49.500;17.736;2023-05-10T07:51:07;4.20;;;2.80;;
3447;SDS011;1738;49.500;17.736;2023-05-10T07:53:33;6.20;;;3.27;;
3447;SDS011;1738;49.500;17.736;2023-05-10T07:55:59;4.30;;;3.17;;
3447;SDS011;1738;49.500;17.736;2023-05-10T07:58:25;4.10;;;2.60;;
3447;SDS011;1738;49.500;17.736;2023-05-10T08:00:51;4.07;;;3.17;;
3447;SDS011;1738;49.500;17.736;2023-05-10T08:03:17;4.90;;;3.17;;
3447;SDS011;1738;49.500;17.736;2023-05-10T08:05:42;10.98;;;3.30;;
3447;SDS011;1738;49.500;17.736;2023-05-10T08:08:08;4.17;;;2.80;;
3447;SDS011;1738;49.500;17.736;2023-05-10T08:10:34;3.60;;;2.60;;
3447;SDS011;1738;49.500;17.736;2023-05-10T08:13:00;4.17;;;2.80;;
3447;SDS011;1738;49.500;17.736;2023-05-10T08:15:26;5.90;;;2.70;;
3447;SDS011;1738;49.500;17.736;2023-05-10T08:17:52;3.87;;;2.70;;
3447;SDS011;1738;49.500;17.736;2023-05-10T08:20:17;4.18;;;2.60;;
3447;SDS011;1738;49.500;17.736;2023-05-10T08:22:43;4.63;;;2.70;;
3447;SDS011;1738;49.500;17.736;2023-05-10T08:25:09;3.63;;;2.60;;
3447;SDS011;1738;49.500;17.736;2023-05-10T08:27:35;3.70;;;2.13;;
3447;SDS011;1738;49.500;17.736;2023-05-10T08:30:01;4.53;;;2.63;;
3447;SDS011;1738;49.500;17.736;2023-05-10T08:32:27;3.73;;;2.43;;
3447;SDS011;1738;49.500;17.736;2023-05-10T08:34:53;3.15;;;2.10;;
3447;SDS011;1738;49.500;17.736;2023-05-10T08:37:19;4.60;;;2.90;;
3447;SDS011;1738;49.500;17.736;2023-05-10T08:39:45;7.70;;;2.23;;
3447;SDS011;1738;49.500;17.736;2023-05-10T08:42:11;5.18;;;2.28;;
3447;SDS011;1738;49.500;17.736;2023-05-10T08:44:37;3.37;;;2.20;;
3447;SDS011;1738;49.500;17.736;2023-05-10T08:47:04;4.13;;;2.20;;
3447;SDS011;1738;49.500;17.736;2023-05-10T08:49:28;3.00;;;1.98;;
3447;SDS011;1738;49.500;17.736;2023-05-10T08:51:54;4.13;;;2.30;;
3447;SDS011;1738;49.500;17.736;2023-05-10T08:54:21;5.90;;;2.60;;
3447;SDS011;1738;49.500;17.736;2023-05-10T08:56:46;3.70;;;2.47;;
3447;SDS011;1738;49.500;17.736;2023-05-10T08:59:12;3.40;;;2.20;;
3447;SDS011;1738;49.500;17.736;2023-05-10T09:01:38;4.77;;;2.27;;
3447;SDS011;1738;49.500;17.736;2023-05-10T09:04:04;3.63;;;2.30;;
3447;SDS011;1738;49.500;17.736;2023-05-10T09:06:30;3.40;;;2.47;;
3447;SDS011;1738;49.500;17.736;2023-05-10T09:08:55;5.23;;;2.83;;
3447;SDS011;1738;49.500;17.736;2023-05-10T09:11:21;3.13;;;1.97;;
3447;SDS011;1738;49.500;17.736;2023-05-10T09:13:48;5.85;;;2.35;;
3447;SDS011;1738;49.500;17.736;2023-05-10T09:16:13;3.70;;;2.43;;
3447;SDS011;1738;49.500;17.736;2023-05-10T09:18:39;7.43;;;2.27;;
3447;SDS011;1738;49.500;17.736;2023-05-10T09:21:05;4.00;;;2.80;;
3447;SDS011;1738;49.500;17.736;2023-05-10T09:23:31;5.30;;;2.43;;
3447;SDS011;1738;49.500;17.736;2023-05-10T09:26:03;3.13;;;2.17;;
3447;SDS011;1738;49.500;17.736;2023-05-10T09:28:31;3.77;;;2.80;;
3447;SDS011;1738;49.500;17.736;2023-05-10T09:30:54;2.62;;;1.70;;
3447;SDS011;1738;49.500;17.736;2023-05-10T09:33:20;3.27;;;2.27;;
3447;SDS011;1738;49.500;17.736;2023-05-10T09:35:46;3.00;;;2.20;;
3447;SDS011;1738;49.500;17.736;2023-05-10T09:38:12;3.35;;;2.37;;
3447;SDS011;1738;49.500;17.736;2023-05-10T09:40:37;2.67;;;1.80;;
3447;SDS011;1738;49.500;17.736;2023-05-10T09:43:05;4.10;;;2.17;;
3447;SDS011;1738;49.500;17.736;2023-05-10T09:45:30;3.67;;;2.10;;
3447;SDS011;1738;49.500;17.736;2023-05-10T09:47:55;3.10;;;2.17;;
3447;SDS011;1738;49.500;17.736;2023-05-10T09:50:21;3.55;;;2.28;;
3447;SDS011;1738;49.500;17.736;2023-05-10T09:52:48;3.43;;;2.00;;
3447;SDS011;1738;49.500;17.736;2023-05-10T09:55:13;3.37;;;2.43;;
3447;SDS011;1738;49.500;17.736;2023-05-10T09:57:39;5.40;;;2.00;;
3447;SDS011;1738;49.500;17.736;2023-05-10T10:00:05;2.93;;;2.13;;
3447;SDS011;1738;49.500;17.736;2023-05-10T10:02:31;10.17;;;2.00;;
3447;SDS011;1738;49.500;17.736;2023-05-10T10:04:57;3.20;;;1.50;;
3447;SDS011;1738;49.500;17.736;2023-05-10T10:07:23;3.53;;;2.00;;
3447;SDS011;1738;49.500;17.736;2023-05-10T10:09:48;4.13;;;1.90;;
3447;SDS011;1738;49.500;17.736;2023-05-10T10:12:15;3.72;;;2.30;;
3447;SDS011;1738;49.500;17.736;2023-05-10T10:14:41;3.07;;;1.70;;
3447;SDS011;1738;49.500;17.736;2023-05-10T10:17:06;3.10;;;1.93;;
3447;SDS011;1738;49.500;17.736;2023-05-10T10:19:33;5.27;;;2.23;;
3447;SDS011;1738;49.500;17.736;2023-05-10T10:21:59;6.97;;;2.60;;
3447;SDS011;1738;49.500;17.736;2023-05-10T10:24:25;3.50;;;1.95;;
3447;SDS011;1738;49.500;17.736;2023-05-10T10:26:51;5.13;;;2.27;;
3447;SDS011;1738;49.500;17.736;2023-05-10T10:29:20;3.50;;;2.20;;
3447;SDS011;1738;49.500;17.736;2023-05-10T10:31:47;4.30;;;2.27;;
3447;SDS011;1738;49.500;17.736;2023-05-10T10:34:21;5.20;;;2.10;;
3447;SDS011;1738;49.500;17.736;2023-05-10T10:36:43;3.73;;;2.30;;
3447;SDS011;1738;49.500;17.736;2023-05-10T10:39:09;6.10;;;2.67;;
3447;SDS011;1738;49.500;17.736;2023-05-10T10:41:35;3.13;;;2.50;;
3447;SDS011;1738;49.500;17.736;2023-05-10T10:46:32;3.80;;;2.47;;
3447;SDS011;1738;49.500;17.736;2023-05-10T10:51:29;3.50;;;2.20;;
3447;SDS011;1738;49.500;17.736;2023-05-10T10:53:55;4.30;;;2.77;;
3447;SDS011;1738;49.500;17.736;2023-05-10T10:56:21;6.03;;;2.03;;
3447;SDS011;1738;49.500;17.736;2023-05-10T10:58:49;3.10;;;2.20;;
3447;SDS011;1738;49.500;17.736;2023-05-10T11:01:14;3.37;;;2.17;;
3447;SDS011;1738;49.500;17.736;2023-05-10T11:03:39;2.97;;;2.15;;
3447;SDS011;1738;49.500;17.736;2023-05-10T11:06:05;3.60;;;2.40;;
3447;SDS011;1738;49.500;17.736;2023-05-10T11:08:31;2.90;;;1.90;;
3447;SDS011;1738;49.500;17.736;2023-05-10T11:11:06;3.37;;;1.97;;
3447;SDS011;1738;49.500;17.736;2023-05-10T11:13:34;3.00;;;2.10;;
3447;SDS011;1738;49.500;17.736;2023-05-10T11:16:09;3.20;;;2.20;;
3447;SDS011;1738;49.500;17.736;2023-05-10T11:18:26;3.07;;;1.83;;
3447;SDS011;1738;49.500;17.736;2023-05-10T11:20:51;3.47;;;2.80;;
3447;SDS011;1738;49.500;17.736;2023-05-10T11:23:17;3.30;;;1.97;;
3447;SDS011;1738;49.500;17.736;2023-05-10T11:25:43;3.07;;;1.80;;
3447;SDS011;1738;49.500;17.736;2023-05-10T11:28:08;3.43;;;2.10;;
3447;SDS011;1738;49.500;17.736;2023-05-10T11:30:35;4.70;;;2.47;;
3447;SDS011;1738;49.500;17.736;2023-05-10T11:33:00;3.17;;;1.97;;
3447;SDS011;1738;49.500;17.736;2023-05-10T11:35:27;3.00;;;1.90;;
3447;SDS011;1738;49.500;17.736;2023-05-10T11:37:52;3.50;;;2.00;;
3447;SDS011;1738;49.500;17.736;2023-05-10T11:40:18;6.33;;;2.50;;
3447;SDS011;1738;49.500;17.736;2023-05-10T11:42:44;4.57;;;2.20;;
3447;SDS011;1738;49.500;17.736;2023-05-10T11:45:10;3.20;;;2.27;;
3447;SDS011;1738;49.500;17.736;2023-05-10T11:47:36;3.50;;;2.10;;
3447;SDS011;1738;49.500;17.736;2023-05-10T11:50:01;3.67;;;2.77;;
3447;SDS011;1738;49.500;17.736;2023-05-10T11:52:27;3.00;;;2.10;;
3447;SDS011;1738;49.500;17.736;2023-05-10T11:54:53;3.67;;;2.20;;
3447;SDS011;1738;49.500;17.736;2023-05-10T11:57:19;2.60;;;1.73;;
3447;SDS011;1738;49.500;17.736;2023-05-10T11:59:46;3.20;;;2.10;;
3447;SDS011;1738;49.500;17.736;2023-05-10T12:02:12;3.55;;;2.45;;
3447;SDS011;1738;49.500;17.736;2023-05-10T12:04:37;4.77;;;2.17;;
3447;SDS011;1738;49.500;17.736;2023-05-10T12:07:03;2.83;;;1.93;;
3447;SDS011;1738;49.500;17.736;2023-05-10T12:09:29;6.20;;;2.30;;
3447;SDS011;1738;49.500;17.736;2023-05-10T12:11:55;6.63;;;3.80;;
3447;SDS011;1738;49.500;17.736;2023-05-10T12:14:21;6.17;;;2.23;;
3447;SDS011;1738;49.500;17.736;2023-05-10T12:16:47;3.30;;;2.10;;
3447;SDS011;1738;49.500;17.736;2023-05-10T12:19:12;7.83;;;4.17;;
3447;SDS011;1738;49.500;17.736;2023-05-10T12:21:38;4.40;;;2.30;;
3447;SDS011;1738;49.500;17.736;2023-05-10T12:24:04;3.93;;;2.23;;
3447;SDS011;1738;49.500;17.736;2023-05-10T12:26:31;3.30;;;1.60;;
3447;SDS011;1738;49.500;17.736;2023-05-10T12:31:28;3.70;;;2.10;;
3447;SDS011;1738;49.500;17.736;2023-05-10T12:33:54;3.20;;;2.27;;
3447;SDS011;1738;49.500;17.736;2023-05-10T12:36:22;5.47;;;2.50;;
3447;SDS011;1738;49.500;17.736;2023-05-10T12:38:46;3.73;;;2.13;;
3447;SDS011;1738;49.500;17.736;2023-05-10T12:41:14;6.43;;;3.63;;
3447;SDS011;1738;49.500;17.736;2023-05-10T12:43:40;4.10;;;2.60;;
3447;SDS011;1738;49.500;17.736;2023-05-10T12:46:13;3.53;;;2.07;;
3447;SDS011;1738;49.500;17.736;2023-05-10T12:48:39;7.80;;;2.03;;
3447;SDS011;1738;49.500;17.736;2023-05-10T12:51:05;3.00;;;2.10;;
3447;SDS011;1738;49.500;17.736;2023-05-10T12:53:31;3.23;;;2.00;;
3447;SDS011;1738;49.500;17.736;2023-05-10T12:55:57;3.00;;;1.77;;
3447;SDS011;1738;49.500;17.736;2023-05-10T12:58:23;3.20;;;2.10;;
3447;SDS011;1738;49.500;17.736;2023-05-10T13:00:50;2.95;;;1.75;;
3447;SDS011;1738;49.500;17.736;2023-05-10T13:03:16;10.33;;;2.20;;
3447;SDS011;1738;49.500;17.736;2023-05-10T13:05:42;3.40;;;2.23;;
3447;SDS011;1738;49.500;17.736;2023-05-10T13:08:08;3.97;;;2.40;;
3447;SDS011;1738;49.500;17.736;2023-05-10T13:10:34;6.00;;;2.43;;
3447;SDS011;1738;49.500;17.736;2023-05-10T13:13:00;4.23;;;2.30;;
3447;SDS011;1738;49.500;17.736;2023-05-10T13:15:26;3.60;;;2.07;;
3447;SDS011;1738;49.500;17.736;2023-05-10T13:17:52;5.33;;;1.93;;
3447;SDS011;1738;49.500;17.736;2023-05-10T13:20:17;4.40;;;2.00;;
3447;SDS011;1738;49.500;17.736;2023-05-10T13:22:43;3.27;;;1.83;;
3447;SDS011;1738;49.500;17.736;2023-05-10T13:25:09;2.60;;;1.80;;
3447;SDS011;1738;49.500;17.736;2023-05-10T13:27:35;3.50;;;2.00;;
3447;SDS011;1738;49.500;17.736;2023-05-10T13:30:01;3.27;;;1.80;;
3447;SDS011;1738;49.500;17.736;2023-05-10T13:32:27;7.03;;;1.60;;
3447;SDS011;1738;49.500;17.736;2023-05-10T13:34:52;3.60;;;2.40;;
3447;SDS011;1738;49.500;17.736;2023-05-10T13:37:18;4.20;;;2.40;;
3447;SDS011;1738;49.500;17.736;2023-05-10T13:39:44;4.10;;;1.60;;
3447;SDS011;1738;49.500;17.736;2023-05-10T13:42:10;6.60;;;1.90;;
3447;SDS011;1738;49.500;17.736;2023-05-10T13:44:36;5.03;;;2.13;;
3447;SDS011;1738;49.500;17.736;2023-05-10T13:47:02;3.07;;;2.10;;
3447;SDS011;1738;49.500;17.736;2023-05-10T13:49:28;4.10;;;2.40;;
3447;SDS011;1738;49.500;17.736;2023-05-10T13:51:53;4.23;;;2.07;;
3447;SDS011;1738;49.500;17.736;2023-05-10T13:54:19;4.10;;;1.93;;
3447;SDS011;1738;49.500;17.736;2023-05-10T13:56:45;8.50;;;2.57;;
3447;SDS011;1738;49.500;17.736;2023-05-10T13:59:11;5.40;;;2.30;;
3447;SDS011;1738;49.500;17.736;2023-05-10T14:01:37;4.78;;;2.12;;
3447;SDS011;1738;49.500;17.736;2023-05-10T14:04:03;4.23;;;2.03;;
3447;SDS011;1738;49.500;17.736;2023-05-10T14:06:29;4.90;;;2.30;;
3447;SDS011;1738;49.500;17.736;2023-05-10T14:08:54;2.97;;;1.90;;
3447;SDS011;1738;49.500;17.736;2023-05-10T14:11:20;2.80;;;2.08;;
3447;SDS011;1738;49.500;17.736;2023-05-10T14:13:46;2.73;;;1.83;;
3447;SDS011;1738;49.500;17.736;2023-05-10T14:16:12;9.27;;;2.28;;
3447;SDS011;1738;49.500;17.736;2023-05-10T14:18:38;8.50;;;2.10;;
3447;SDS011;1738;49.500;17.736;2023-05-10T14:21:04;3.37;;;1.90;;
3447;SDS011;1738;49.500;17.736;2023-05-10T14:23:30;3.33;;;2.23;;
3447;SDS011;1738;49.500;17.736;2023-05-10T14:25:55;4.13;;;1.77;;
3447;SDS011;1738;49.500;17.736;2023-05-10T14:28:21;3.60;;;1.93;;
3447;SDS011;1738;49.500;17.736;2023-05-10T14:30:47;3.67;;;2.13;;
3447;SDS011;1738;49.500;17.736;2023-05-10T14:33:13;3.20;;;2.10;;
3447;SDS011;1738;49.500;17.736;2023-05-10T14:35:39;3.50;;;1.83;;
3447;SDS011;1738;49.500;17.736;2023-05-10T14:38:05;3.10;;;1.97;;
3447;SDS011;1738;49.500;17.736;2023-05-10T14:40:31;2.70;;;1.90;;
3447;SDS011;1738;49.500;17.736;2023-05-10T14:42:56;5.27;;;2.00;;
3447;SDS011;1738;49.500;17.736;2023-05-10T14:45:22;3.20;;;2.23;;
3447;SDS011;1738;49.500;17.736;2023-05-10T14:47:48;5.63;;;2.10;;
3447;SDS011;1738;49.500;17.736;2023-05-10T14:50:14;3.60;;;2.03;;
3447;SDS011;1738;49.500;17.736;2023-05-10T14:52:40;4.07;;;1.90;;
3447;SDS011;1738;49.500;17.736;2023-05-10T14:55:06;3.00;;;1.90;;
3447;SDS011;1738;49.500;17.736;2023-05-10T14:57:32;3.80;;;2.10;;
3447;SDS011;1738;49.500;17.736;2023-05-10T14:59:58;2.90;;;1.80;;
3447;SDS011;1738;49.500;17.736;2023-05-10T15:02:24;3.40;;;2.13;;